Time;durP1;ratioP1;P1;durP2;ratioP2;P2;SDS_P1;SDS_P2;PMS_P1;PMS_P2;Temp;Humidity;BMP_temperature;BMP_pressure;BME280_temperature;BME280_humidity;BME280_pressure;Samples;Min_cycle;Max_cycle;Signal;HPM_P1;HPM_P2
2021/08/03 00:00:57;;;;;;;3.22;0.98;;;15.30;99.90;;;;;;4930887;29;20213;-77
2021/08/03 00:03:28;;;;;;;4.05;1.23;;;15.30;99.90;;;;;;4928023;29;20203;-77
2021/08/03 00:05:57;;;;;;;1.52;1.40;;;15.30;99.90;;;;;;4935229;29;20570;-77
2021/08/03 00:08:28;;;;;;;1.75;1.10;;;15.30;99.90;;;;;;4937100;29;20673;-77
2021/08/03 00:10:55;;;;;;;1.92;1.05;;;15.20;99.90;;;;;;4933631;29;20548;-77
2021/08/03 00:13:22;;;;;;;3.17;1.53;;;15.20;99.90;;;;;;4932168;29;20234;-76
2021/08/03 00:15:51;;;;;;;1.80;1.10;;;15.30;99.90;;;;;;4934221;29;20247;-76
2021/08/03 00:18:18;;;;;;;3.60;1.40;;;15.10;99.90;;;;;;4937722;29;20207;-76
2021/08/03 00:20:45;;;;;;;1.23;1.17;;;15.10;99.90;;;;;;4934612;29;20207;-76
2021/08/03 00:23:12;;;;;;;1.42;1.25;;;15.10;99.90;;;;;;4933145;29;20199;-76
2021/08/03 00:25:40;;;;;;;3.20;1.57;;;15.20;99.90;;;;;;4936002;29;20570;-76
2021/08/03 00:28:08;;;;;;;3.37;1.40;;;15.10;99.90;;;;;;4930987;29;20629;-76
2021/08/03 00:30:34;;;;;;;4.43;1.70;;;15.10;99.90;;;;;;4934247;29;20563;-76
2021/08/03 00:33:02;;;;;;;1.80;1.23;;;15.10;99.90;;;;;;4919409;29;20212;-76
2021/08/03 00:35:29;;;;;;;2.87;1.50;;;15.10;99.90;;;;;;4933412;29;20198;-76
2021/08/03 00:37:56;;;;;;;1.47;1.23;;;15.10;99.90;;;;;;4934165;29;20210;-76
2021/08/03 00:40:25;;;;;;;1.60;1.23;;;14.90;99.90;;;;;;4928776;29;20210;-76
2021/08/03 00:42:53;;;;;;;2.50;1.37;;;14.80;99.90;;;;;;4931083;29;20199;-76
2021/08/03 00:45:20;;;;;;;3.43;1.40;;;14.80;99.90;;;;;;4934626;29;20789;-76
2021/08/03 00:47:47;;;;;;;2.87;1.30;;;14.70;99.90;;;;;;4929149;29;20217;-76
2021/08/03 00:50:14;;;;;;;1.77;1.50;;;14.60;99.90;;;;;;4931308;29;20238;-76
2021/08/03 00:52:41;;;;;;;2.77;2.00;;;14.70;99.90;;;;;;4934426;29;20219;-76
2021/08/03 00:55:10;;;;;;;2.45;1.65;;;14.80;99.90;;;;;;4935011;29;20218;-76
2021/08/03 00:57:38;;;;;;;1.80;1.60;;;14.90;99.90;;;;;;4932103;29;20203;-76
2021/08/03 01:00:08;;;;;;;3.33;1.80;;;14.90;99.90;;;;;;4934373;29;20199;-76
2021/08/03 01:02:35;;;;;;;2.80;1.40;;;15.00;99.90;;;;;;4933882;29;20243;-77
2021/08/03 01:05:02;;;;;;;1.43;1.33;;;15.00;99.90;;;;;;4930205;29;20689;-76
2021/08/03 01:07:38;;;;;;;2.40;1.60;;;14.90;99.90;;;;;;4927224;29;20672;-77
2021/08/03 01:10:17;;;;;;;1.40;1.30;;;14.70;99.90;;;;;;4922824;29;20206;-76
2021/08/03 01:12:52;;;;;;;1.80;1.70;;;14.90;99.90;;;;;;4927644;29;20692;-77
2021/08/03 01:15:23;;;;;;;1.90;1.20;;;14.80;99.90;;;;;;4922644;29;20223;-76
2021/08/03 01:17:59;;;;;;;3.77;1.53;;;14.80;99.90;;;;;;4934536;29;20214;-76
2021/08/03 01:20:30;;;;;;;1.93;1.60;;;14.80;99.90;;;;;;4930576;29;20209;-76
2021/08/03 01:23:21;;;;;;;1.53;1.40;;;14.90;99.90;;;;;;4934378;29;20580;-76
2021/08/03 01:26:00;;;;;;;1.77;1.50;;;14.90;99.90;;;;;;4930562;29;20784;-76
2021/08/03 01:28:32;;;;;;;2.80;1.50;;;14.70;99.90;;;;;;4931124;29;20625;-76
2021/08/03 01:31:02;;;;;;;1.67;1.40;;;14.70;99.90;;;;;;4931461;29;20218;-76
2021/08/03 01:33:31;;;;;;;1.53;1.30;;;14.80;99.90;;;;;;4934867;29;20477;-76
2021/08/03 01:36:01;;;;;;;1.50;1.37;;;14.80;99.90;;;;;;4933559;29;20210;-76
2021/08/03 01:38:29;;;;;;;2.83;1.50;;;14.80;99.90;;;;;;4936487;29;20200;-76
2021/08/03 01:41:01;;;;;;;1.53;1.30;;;14.70;99.90;;;;;;4931771;29;20211;-76
2021/08/03 01:43:30;;;;;;;3.13;1.63;;;14.60;99.90;;;;;;4931832;29;20222;-76
2021/08/03 01:45:59;;;;;;;2.63;1.70;;;14.70;99.90;;;;;;4921671;29;20676;-76
2021/08/03 01:48:26;;;;;;;1.47;1.37;;;14.70;99.90;;;;;;4923444;29;20210;-76
2021/08/03 01:50:55;;;;;;;3.07;1.47;;;14.70;99.90;;;;;;4916955;29;20219;-76
2021/08/03 01:53:25;;;;;;;2.00;1.43;;;14.70;99.90;;;;;;4924319;29;20207;-75
2021/08/03 01:55:54;;;;;;;1.43;1.30;;;14.70;99.90;;;;;;4924736;29;20662;-76
2021/08/03 01:58:22;;;;;;;1.50;1.40;;;14.60;99.90;;;;;;4926083;29;20564;-76
2021/08/03 02:00:52;;;;;;;2.30;1.80;;;14.60;99.90;;;;;;4916031;29;20645;-75
2021/08/03 02:03:21;;;;;;;1.80;1.70;;;14.70;99.90;;;;;;4916255;29;20227;-76
2021/08/03 02:05:50;;;;;;;2.23;1.53;;;14.70;99.90;;;;;;4926713;29;20254;-75
2021/08/03 02:08:19;;;;;;;2.23;1.83;;;14.70;99.90;;;;;;4924383;29;20610;-76
2021/08/03 02:10:46;;;;;;;1.90;1.80;;;14.70;99.90;;;;;;4920704;29;20199;-76
2021/08/03 02:13:15;;;;;;;2.27;1.90;;;14.70;99.90;;;;;;4934092;29;20213;-76
2021/08/03 02:15:42;;;;;;;3.37;1.97;;;14.70;99.90;;;;;;4934966;29;20229;-76
2021/08/03 02:18:10;;;;;;;1.80;1.70;;;14.60;99.90;;;;;;4931944;29;20210;-76
2021/08/03 02:20:38;;;;;;;3.13;2.13;;;14.70;99.90;;;;;;4924318;29;20210;-76
2021/08/03 02:23:05;;;;;;;3.73;1.50;;;14.60;99.90;;;;;;4927618;29;20206;-76
2021/08/03 02:25:32;;;;;;;2.80;2.00;;;14.40;99.90;;;;;;4923421;29;20286;-76
2021/08/03 02:27:59;;;;;;;2.37;1.80;;;14.50;99.90;;;;;;4926326;29;20554;-76
2021/08/03 02:30:26;;;;;;;1.87;1.77;;;14.50;99.90;;;;;;4928592;29;20207;-76
2021/08/03 02:33:01;;;;;;;2.60;2.10;;;14.50;99.90;;;;;;4920304;29;20215;-76
2021/08/03 02:35:34;;;;;;;2.97;1.90;;;14.40;99.90;;;;;;4927846;29;20714;-76
2021/08/03 02:38:04;;;;;;;5.00;1.80;;;14.30;99.90;;;;;;4933950;29;20294;-76
2021/08/03 02:40:32;;;;;;;3.00;1.80;;;14.40;99.90;;;;;;4928879;29;20215;-76
2021/08/03 02:43:00;;;;;;;2.27;1.80;;;14.40;99.90;;;;;;4916970;29;20684;-76
2021/08/03 02:45:27;;;;;;;4.23;1.80;;;14.30;99.90;;;;;;4932773;29;20199;-76
2021/08/03 02:47:58;;;;;;;1.70;1.60;;;14.30;99.90;;;;;;4930809;29;20203;-76
2021/08/03 02:50:27;;;;;;;2.83;2.03;;;14.30;99.90;;;;;;4932485;29;20262;-76
2021/08/03 02:52:59;;;;;;;2.60;1.90;;;14.20;99.90;;;;;;4916016;29;20205;-76
2021/08/03 02:55:34;;;;;;;2.00;1.70;;;14.20;99.90;;;;;;4932833;29;20608;-76
2021/08/03 02:58:05;;;;;;;1.97;1.80;;;14.30;99.90;;;;;;4929377;29;20211;-76
2021/08/03 03:00:36;;;;;;;3.87;2.20;;;14.40;99.90;;;;;;4932206;29;20203;-76
2021/08/03 03:03:07;;;;;;;2.00;1.80;;;14.40;99.90;;;;;;4930298;29;20203;-76
2021/08/03 03:05:37;;;;;;;2.57;1.83;;;14.40;99.90;;;;;;4930160;29;20211;-76
2021/08/03 03:08:09;;;;;;;4.27;2.07;;;14.40;99.90;;;;;;4916352;29;20204;-76
2021/08/03 03:10:42;;;;;;;1.90;1.80;;;14.40;99.90;;;;;;4923924;29;21630;-76
2021/08/03 03:13:13;;;;;;;2.37;2.17;;;14.40;99.90;;;;;;4931623;29;20214;-76
2021/08/03 03:15:41;;;;;;;3.30;1.90;;;14.30;99.90;;;;;;4919872;29;20235;-76
2021/08/03 03:18:10;;;;;;;3.30;1.87;;;14.30;99.90;;;;;;4927274;29;20207;-76
2021/08/03 03:20:39;;;;;;;4.13;2.00;;;14.40;99.90;;;;;;4920192;29;20679;-76
2021/08/03 03:23:08;;;;;;;4.37;2.37;;;14.30;99.90;;;;;;4928317;29;20211;-76
2021/08/03 03:25:36;;;;;;;3.00;2.00;;;14.40;99.90;;;;;;4917423;29;20565;-76
2021/08/03 03:28:05;;;;;;;2.83;2.17;;;14.40;99.90;;;;;;4930637;29;20687;-76
2021/08/03 03:30:33;;;;;;;5.07;1.97;;;14.30;99.90;;;;;;4915892;29;20212;-76
2021/08/03 03:33:04;;;;;;;2.40;1.83;;;14.40;99.90;;;;;;4931353;29;20206;-75
2021/08/03 03:35:33;;;;;;;5.00;2.10;;;14.40;99.90;;;;;;4924963;29;20227;-76
2021/08/03 03:38:00;;;;;;;5.17;2.37;;;14.50;99.90;;;;;;4924078;29;20667;-73
2021/08/03 03:40:30;;;;;;;2.97;2.20;;;14.50;99.90;;;;;;4921918;29;20207;-73
2021/08/03 03:42:58;;;;;;;5.90;3.70;;;14.60;99.90;;;;;;4931699;29;20211;-73
2021/08/03 03:45:26;;;;;;;4.37;3.17;;;14.50;99.90;;;;;;4930097;29;20234;-73
2021/08/03 03:47:59;;;;;;;2.37;2.17;;;14.40;99.90;;;;;;4925498;29;20206;-73
2021/08/03 03:50:31;;;;;;;3.33;2.03;;;14.40;99.90;;;;;;4931819;29;20210;-73
2021/08/03 03:53:05;;;;;;;2.13;2.00;;;14.30;99.90;;;;;;4930302;29;20657;-73
2021/08/03 03:55:34;;;;;;;2.03;1.67;;;14.30;99.90;;;;;;4927596;29;20226;-73
2021/08/03 03:58:02;;;;;;;5.43;2.40;;;14.30;99.90;;;;;;4932441;29;20579;-73
2021/08/03 04:00:34;;;;;;;3.33;2.13;;;14.40;99.90;;;;;;4930402;29;20207;-73
2021/08/03 04:03:04;;;;;;;3.13;2.50;;;14.40;99.90;;;;;;4920865;29;20685;-73
2021/08/03 04:05:31;;;;;;;3.07;2.27;;;14.50;99.90;;;;;;4925846;29;20658;-72
2021/08/03 04:07:58;;;;;;;3.40;2.40;;;14.50;99.90;;;;;;4929465;29;20204;-72
2021/08/03 04:10:34;;;;;;;4.17;2.20;;;14.60;99.90;;;;;;4923528;29;20204;-72
2021/08/03 04:13:01;;;;;;;3.37;2.33;;;14.30;99.90;;;;;;4938026;29;20216;-72
2021/08/03 04:15:29;;;;;;;2.97;1.90;;;14.30;99.90;;;;;;4934783;29;20223;-72
2021/08/03 04:17:56;;;;;;;3.70;2.00;;;14.40;99.90;;;;;;4923609;29;20207;-72
2021/08/03 04:20:23;;;;;;;2.13;1.93;;;14.20;99.90;;;;;;4931843;29;20210;-72
2021/08/03 04:22:50;;;;;;;2.20;2.00;;;14.10;99.90;;;;;;4934194;29;20206;-73
2021/08/03 04:25:17;;;;;;;3.37;2.30;;;14.20;99.90;;;;;;4932775;29;20203;-73
2021/08/03 04:27:45;;;;;;;2.53;2.30;;;14.20;99.90;;;;;;4934774;29;20479;-72
2021/08/03 04:30:15;;;;;;;2.43;2.10;;;14.30;99.90;;;;;;4931858;29;20295;-73
2021/08/03 04:32:42;;;;;;;4.67;2.60;;;14.20;99.90;;;;;;4928660;29;20210;-73
2021/08/03 04:35:10;;;;;;;4.57;2.70;;;14.20;99.90;;;;;;4921918;29;20227;-72
2021/08/03 04:37:38;;;;;;;5.13;2.30;;;14.30;99.90;;;;;;4922472;29;20208;-72
2021/08/03 04:40:07;;;;;;;2.97;2.30;;;14.40;99.90;;;;;;4921315;29;20207;-72
2021/08/03 04:42:34;;;;;;;4.77;2.43;;;14.50;99.90;;;;;;4928311;29;20215;-72
2021/08/03 04:45:02;;;;;;;3.60;2.70;;;14.60;99.90;;;;;;4934380;29;20203;-73
2021/08/03 04:47:29;;;;;;;2.77;2.10;;;14.70;99.90;;;;;;4932726;29;20203;-72
2021/08/03 04:49:56;;;;;;;4.07;2.43;;;14.70;99.90;;;;;;4922206;29;20646;-73
2021/08/03 04:52:23;;;;;;;3.20;2.50;;;14.80;99.90;;;;;;4929930;29;20222;-72
2021/08/03 04:54:50;;;;;;;5.00;2.60;;;14.80;99.90;;;;;;4929955;29;20700;-72
2021/08/03 04:57:17;;;;;;;2.97;2.33;;;14.80;99.90;;;;;;4931520;29;20213;-72
2021/08/03 04:59:43;;;;;;;6.15;2.65;;;14.80;99.90;;;;;;4921363;29;20581;-72
2021/08/03 05:02:11;;;;;;;4.07;2.30;;;14.80;99.90;;;;;;4923075;29;20203;-72
2021/08/03 05:04:38;;;;;;;7.47;2.97;;;14.70;99.90;;;;;;4935347;29;20710;-72
2021/08/03 05:07:05;;;;;;;3.33;2.60;;;14.60;99.90;;;;;;4929238;29;20207;-72
2021/08/03 05:09:32;;;;;;;3.90;2.47;;;14.60;99.90;;;;;;4934682;29;20203;-72
2021/08/03 05:11:59;;;;;;;4.30;2.67;;;14.60;99.90;;;;;;4933298;29;20305;-72
2021/08/03 05:14:26;;;;;;;3.35;2.45;;;14.50;99.90;;;;;;4932635;29;20207;-72
2021/08/03 05:16:53;;;;;;;5.47;3.33;;;14.60;99.90;;;;;;4924356;29;20212;-72
2021/08/03 05:19:21;;;;;;;3.20;2.47;;;14.60;99.90;;;;;;4932043;29;20210;-72
2021/08/03 05:21:48;;;;;;;6.13;2.70;;;14.80;99.90;;;;;;4925646;29;20219;-72
2021/08/03 05:24:15;;;;;;;5.17;2.80;;;14.90;99.90;;;;;;4928342;29;20650;-72
2021/08/03 05:26:42;;;;;;;3.17;2.60;;;15.10;99.90;;;;;;4917722;29;20206;-73
2021/08/03 05:29:09;;;;;;;4.63;2.90;;;15.00;99.90;;;;;;4930107;29;20227;-72
2021/08/03 05:31:37;;;;;;;3.10;2.60;;;15.10;99.90;;;;;;4923151;29;20212;-72
2021/08/03 05:34:04;;;;;;;4.67;2.33;;;15.00;99.90;;;;;;4926476;29;20680;-73
2021/08/03 05:36:32;;;;;;;5.80;2.73;;;15.10;99.90;;;;;;4932753;29;20227;-72
2021/08/03 05:38:59;;;;;;;3.30;2.43;;;15.10;99.90;;;;;;4937376;29;20285;-72
2021/08/03 05:41:26;;;;;;;4.70;2.83;;;15.10;99.90;;;;;;4925469;29;20217;-72
2021/08/03 05:43:53;;;;;;;6.53;2.67;;;15.00;99.90;;;;;;4934627;29;20213;-72
2021/08/03 05:46:20;;;;;;;2.90;2.33;;;15.00;99.90;;;;;;4928210;29;20227;-72
2021/08/03 05:48:47;;;;;;;6.33;2.80;;;15.10;99.90;;;;;;4927333;29;20207;-72
2021/08/03 05:51:14;;;;;;;4.40;2.80;;;14.90;99.90;;;;;;4917806;29;20223;-73
2021/08/03 05:53:42;;;;;;;5.00;2.60;;;15.10;99.90;;;;;;4921201;29;20229;-72
2021/08/03 05:56:09;;;;;;;6.23;2.63;;;15.30;99.90;;;;;;4921120;29;20309;-72
2021/08/03 05:58:36;;;;;;;4.03;3.00;;;15.30;99.90;;;;;;4931813;29;20779;-73
2021/08/03 06:01:03;;;;;;;3.37;2.70;;;15.30;99.90;;;;;;4930479;29;20207;-73
2021/08/03 06:03:29;;;;;;;4.27;2.90;;;15.40;99.90;;;;;;4925284;29;20297;-72
2021/08/03 06:05:56;;;;;;;7.47;3.20;;;15.40;99.90;;;;;;4933935;29;20203;-72
2021/08/03 06:08:25;;;;;;;3.80;3.10;;;15.50;99.90;;;;;;4920163;29;20684;-73
2021/08/03 06:10:54;;;;;;;4.60;2.87;;;15.60;99.90;;;;;;4919138;29;20207;-72
2021/08/03 06:13:24;;;;;;;6.73;3.30;;;15.70;99.90;;;;;;4925494;29;20219;-73
2021/08/03 06:15:52;;;;;;;3.88;3.17;;;15.90;99.90;;;;;;4930412;29;20755;-72
2021/08/03 06:18:28;;;;;;;7.73;3.03;;;15.70;99.90;;;;;;4925507;29;20210;-72
2021/08/03 06:20:55;;;;;;;7.70;2.85;;;15.70;99.90;;;;;;4919115;29;20207;-72
2021/08/03 06:23:24;;;;;;;6.27;3.00;;;15.80;99.90;;;;;;4923872;29;20262;-73
2021/08/03 06:25:54;;;;;;;6.00;3.17;;;15.70;99.90;;;;;;4927297;29;20203;-72
2021/08/03 06:28:23;;;;;;;5.53;3.20;;;15.60;99.90;;;;;;4927711;29;20561;-72
2021/08/03 06:30:51;;;;;;;3.38;2.70;;;15.80;99.90;;;;;;4923485;29;20214;-73
2021/08/03 06:33:19;;;;;;;3.37;2.50;;;15.80;99.90;;;;;;4921326;29;20211;-73
2021/08/03 06:35:46;;;;;;;6.05;2.75;;;15.90;99.90;;;;;;4921039;29;20237;-72
2021/08/03 06:38:13;;;;;;;5.30;2.65;;;16.00;99.90;;;;;;4928633;29;20216;-72
2021/08/03 06:40:47;;;;;;;3.92;2.72;;;15.90;99.90;;;;;;4924145;29;20211;-72
2021/08/03 06:43:18;;;;;;;5.53;3.07;;;15.90;99.90;;;;;;4905471;29;20624;-73
2021/08/03 06:45:49;;;;;;;3.60;2.90;;;16.00;99.90;;;;;;4930542;29;20207;-73
2021/08/03 06:48:21;;;;;;;7.40;3.10;;;16.10;99.90;;;;;;4918634;29;20701;-73
2021/08/03 06:50:58;;;;;;;5.00;2.80;;;16.20;99.90;;;;;;4920044;29;20199;-72
2021/08/03 06:53:29;;;;;;;5.38;3.03;;;16.20;99.90;;;;;;4917679;29;20207;-72
2021/08/03 06:55:57;;;;;;;5.85;2.92;;;16.30;99.90;;;;;;4925834;29;20219;-73
2021/08/03 06:58:31;;;;;;;4.18;2.90;;;16.30;99.90;;;;;;4928577;29;20214;-73
2021/08/03 07:01:02;;;;;;;3.97;2.78;;;16.50;99.90;;;;;;4927438;29;20243;-73
2021/08/03 07:03:34;;;;;;;5.28;2.55;;;16.50;99.90;;;;;;4922746;29;20247;-72
2021/08/03 07:06:01;;;;;;;5.75;2.47;;;16.50;99.90;;;;;;4932562;29;20712;-73
2021/08/03 07:08:32;;;;;;;2.90;2.17;;;16.50;99.90;;;;;;4915636;29;20570;-73
2021/08/03 07:11:00;;;;;;;5.38;2.33;;;16.70;99.90;;;;;;4928043;29;20242;-73
2021/08/03 07:13:30;;;;;;;3.03;2.30;;;16.90;99.90;;;;;;4936199;29;20217;-72
2021/08/03 07:15:58;;;;;;;4.85;2.30;;;17.00;99.90;;;;;;4927707;29;20315;-73
2021/08/03 07:18:26;;;;;;;3.95;2.00;;;17.10;99.90;;;;;;4920038;29;20662;-72
2021/08/03 07:20:55;;;;;;;2.45;2.13;;;17.10;99.90;;;;;;4921625;29;20573;-72
2021/08/03 07:23:22;;;;;;;4.95;2.38;;;17.20;99.90;;;;;;4929242;29;20233;-72
2021/08/03 07:25:50;;;;;;;3.78;2.25;;;17.20;99.90;;;;;;4922943;29;20571;-72
2021/08/03 07:28:17;;;;;;;3.05;2.25;;;17.20;99.90;;;;;;4916059;29;20272;-72
2021/08/03 07:30:45;;;;;;;2.60;2.13;;;17.20;99.90;;;;;;4927127;29;20670;-72
2021/08/03 07:33:13;;;;;;;3.00;1.85;;;17.30;99.90;;;;;;4915941;29;20681;-72
2021/08/03 07:35:41;;;;;;;3.38;2.10;;;17.30;99.90;;;;;;4926581;29;20228;-72
2021/08/03 07:38:09;;;;;;;3.25;2.10;;;17.40;99.90;;;;;;4914834;29;20271;-72
2021/08/03 07:40:36;;;;;;;3.13;1.80;;;17.40;99.90;;;;;;4927026;29;20656;-72
2021/08/03 07:43:04;;;;;;;3.40;1.77;;;17.20;99.90;;;;;;4922892;29;20239;-72
2021/08/03 07:45:31;;;;;;;2.63;2.15;;;17.00;99.90;;;;;;4916278;29;20211;-72
2021/08/03 07:48:00;;;;;;;5.97;1.92;;;17.20;99.90;;;;;;4925826;29;20215;-72
2021/08/03 07:50:27;;;;;;;5.07;2.28;;;17.20;99.90;;;;;;4923274;29;20207;-72
2021/08/03 07:52:55;;;;;;;5.97;2.10;;;17.20;99.90;;;;;;4915379;29;20208;-72
2021/08/03 07:55:22;;;;;;;2.90;1.75;;;17.20;99.90;;;;;;4918280;29;20215;-72
2021/08/03 07:57:49;;;;;;;4.03;1.80;;;17.20;99.90;;;;;;4918464;29;20207;-72
2021/08/03 08:00:16;;;;;;;1.77;1.65;;;17.30;99.90;;;;;;4925323;29;20303;-72
2021/08/03 08:02:42;;;;;;;1.50;1.40;;;17.20;99.90;;;;;;4920105;29;20233;-72
2021/08/03 08:05:11;;;;;;;3.15;1.92;;;17.10;99.90;;;;;;4914424;29;20204;-72
2021/08/03 08:07:38;;;;;;;2.80;1.60;;;17.20;99.90;;;;;;4921092;29;20693;-72
2021/08/03 08:10:06;;;;;;;4.43;1.75;;;17.30;99.90;;;;;;4921351;29;20218;-74
2021/08/03 08:12:33;;;;;;;1.98;1.20;;;17.30;99.90;;;;;;4924279;29;20222;-74
2021/08/03 08:15:00;;;;;;;3.67;1.27;;;17.20;99.90;;;;;;4920633;29;20690;-74
2021/08/03 08:17:26;;;;;;;3.05;1.67;;;17.50;99.90;;;;;;4917609;29;20223;-74
2021/08/03 08:19:54;;;;;;;5.85;1.70;;;17.70;99.90;;;;;;4928669;29;20221;-74
2021/08/03 08:22:22;;;;;;;2.92;1.50;;;17.70;99.90;;;;;;4915205;29;20221;-74
2021/08/03 08:24:49;;;;;;;3.97;1.40;;;18.10;99.90;;;;;;4917759;29;20231;-73
2021/08/03 08:27:17;;;;;;;2.72;1.27;;;18.20;99.90;;;;;;4921223;29;20208;-75
2021/08/03 08:29:44;;;;;;;2.45;1.10;;;18.30;99.90;;;;;;4924377;29;20230;-74
2021/08/03 08:32:11;;;;;;;3.25;1.63;;;18.30;99.90;;;;;;4916977;29;20237;-73
2021/08/03 08:34:38;;;;;;;6.65;2.05;;;18.00;99.90;;;;;;4929032;29;20656;-73
2021/08/03 08:37:05;;;;;;;3.60;2.00;;;18.10;99.90;;;;;;4924623;29;20223;-72
2021/08/03 08:39:33;;;;;;;3.90;1.77;;;18.20;99.90;;;;;;4916821;29;20613;-73
2021/08/03 08:42:00;;;;;;;1.58;1.48;;;18.40;99.90;;;;;;4921125;29;20214;-73
2021/08/03 08:44:27;;;;;;;2.38;1.50;;;18.40;99.90;;;;;;4915333;29;20411;-73
2021/08/03 08:46:58;;;;;;;2.63;1.63;;;18.50;99.90;;;;;;4918978;29;20215;-73
2021/08/03 08:49:25;;;;;;;6.00;1.80;;;18.50;99.90;;;;;;4919193;29;20267;-74
2021/08/03 08:51:53;;;;;;;2.70;1.77;;;18.60;99.90;;;;;;4910045;29;20224;-73
2021/08/03 08:54:20;;;;;;;2.83;1.58;;;18.30;99.90;;;;;;4922783;29;20231;-73
2021/08/03 08:56:48;;;;;;;2.55;1.60;;;18.50;99.90;;;;;;4919143;29;20647;-72
2021/08/03 08:59:15;;;;;;;1.92;1.70;;;18.60;99.90;;;;;;4927673;29;20222;-74
2021/08/03 09:01:42;;;;;;;3.20;1.73;;;18.80;99.90;;;;;;4921774;29;20218;-74
2021/08/03 09:04:08;;;;;;;2.85;1.30;;;18.80;99.90;;;;;;4924403;29;20296;-75
2021/08/03 09:06:35;;;;;;;3.47;1.80;;;19.00;99.90;;;;;;4927153;29;20207;-74
2021/08/03 09:09:14;;;;;;;3.53;1.75;;;19.20;99.90;;;;;;4932461;29;20207;-73
2021/08/03 09:11:45;;;;;;;2.88;1.30;;;19.40;99.90;;;;;;4929584;29;20203;-73
2021/08/03 09:14:14;;;;;;;4.00;1.80;;;19.80;99.90;;;;;;4915256;29;20264;-73
2021/08/03 09:16:45;;;;;;;3.38;1.92;;;20.00;99.90;;;;;;4926619;29;20227;-73
2021/08/03 09:19:27;;;;;;;1.60;1.50;;;19.70;99.90;;;;;;4923344;29;20203;-73
2021/08/03 09:22:13;;;;;;;2.30;1.27;;;20.10;99.90;;;;;;4921221;29;20208;-73
2021/08/03 09:24:43;;;;;;;1.40;1.30;;;20.70;99.90;;;;;;4931521;29;20661;-73
2021/08/03 09:27:32;;;;;;;1.77;1.60;;;20.80;99.90;;;;;;4917894;29;20540;-73
2021/08/03 09:30:00;;;;;;;1.85;1.13;;;20.80;99.90;;;;;;4925487;29;20209;-73
2021/08/03 09:32:32;;;;;;;3.00;1.45;;;21.20;99.90;;;;;;4928985;29;20203;-73
2021/08/03 09:35:07;;;;;;;3.05;1.70;;;21.90;99.90;;;;;;4933717;29;20211;-73
2021/08/03 09:37:34;;;;;;;1.88;1.48;;;22.30;99.90;;;;;;4921307;29;20235;-73
2021/08/03 09:40:02;;;;;;;3.22;1.70;;;22.10;99.90;;;;;;4933640;29;20203;-73
2021/08/03 09:42:29;;;;;;;4.05;1.55;;;22.10;99.90;;;;;;4927454;29;20215;-73
2021/08/03 09:44:58;;;;;;;2.58;1.45;;;22.20;99.90;;;;;;4920358;29;20207;-73
2021/08/03 09:47:28;;;;;;;2.05;1.27;;;22.00;99.90;;;;;;4918246;29;20212;-73
2021/08/03 09:49:56;;;;;;;1.52;1.42;;;22.60;99.90;;;;;;4933116;29;20203;-73
2021/08/03 09:52:25;;;;;;;2.83;1.20;;;23.00;99.90;;;;;;4931021;29;20217;-73
2021/08/03 09:55:07;;;;;;;1.70;1.60;;;21.80;99.90;;;;;;4921273;29;20204;-74
2021/08/03 09:57:34;;;;;;;2.13;1.50;;;21.10;99.90;;;;;;4926434;29;20230;-74
2021/08/03 10:00:01;;;;;;;1.52;1.38;;;21.30;99.90;;;;;;4924198;29;20573;-73
2021/08/03 10:02:29;;;;;;;2.10;1.63;;;21.20;99.90;;;;;;4923698;29;20211;-75
2021/08/03 10:04:57;;;;;;;1.95;1.70;;;20.80;99.90;;;;;;4918058;29;20213;-75
2021/08/03 10:07:24;;;;;;;4.38;1.60;;;21.10;99.90;;;;;;4915788;29;20212;-76
2021/08/03 10:09:52;;;;;;;4.00;1.65;;;21.30;99.90;;;;;;4921105;29;20207;-76
2021/08/03 10:12:19;;;;;;;3.83;1.65;;;21.70;99.90;;;;;;4932327;29;20211;-76
2021/08/03 10:14:46;;;;;;;2.40;1.70;;;21.50;99.90;;;;;;4930027;29;20247;-76
2021/08/03 10:17:14;;;;;;;5.50;2.20;;;22.00;99.90;;;;;;4926482;29;20584;-76
2021/08/03 10:19:43;;;;;;;3.05;1.70;;;22.00;99.90;;;;;;4930338;29;20217;-76
2021/08/03 10:22:26;;;;;;;2.22;1.77;;;22.20;99.90;;;;;;4912116;29;20208;-76
2021/08/03 10:24:57;;;;;;;2.33;1.92;;;22.50;99.90;;;;;;4924635;29;20327;-76
2021/08/03 10:27:38;;;;;;;5.50;1.75;;;22.10;99.90;;;;;;4928121;29;20211;-75
2021/08/03 10:30:07;;;;;;;2.03;1.77;;;23.00;99.90;;;;;;4930306;29;20213;-77
2021/08/03 10:32:39;;;;;;;2.40;1.52;;;22.90;99.90;;;;;;4924538;29;20262;-74
2021/08/03 10:35:15;;;;;;;3.40;1.80;;;22.80;99.90;;;;;;4930885;29;20634;-73
2021/08/03 10:38:13;;;;;;;4.35;1.92;;;22.90;99.90;;;;;;4923979;29;20266;-73
2021/08/03 10:41:08;;;;;;;2.00;1.80;;;23.00;99.90;;;;;;4882575;29;20213;-73
2021/08/03 10:43:49;;;;;;;1.67;1.58;;;22.50;99.90;;;;;;4907569;29;20215;-73
2021/08/03 10:46:39;;;;;;;3.08;1.73;;;22.60;99.90;;;;;;4915514;29;20215;-73
2021/08/03 10:49:07;;;;;;;2.88;1.77;;;22.80;99.90;;;;;;4930663;29;20301;-73
2021/08/03 10:51:43;;;;;;;3.17;2.10;;;22.80;99.90;;;;;;4930184;29;20223;-73
2021/08/03 10:54:12;;;;;;;2.17;1.33;;;22.30;99.90;;;;;;4934551;29;20210;-73
2021/08/03 10:57:19;;;;;;;2.13;1.40;;;22.30;99.90;;;;;;4922668;29;20305;-73
2021/08/03 10:59:58;;;;;;;4.13;2.00;;;22.50;99.90;;;;;;4917375;29;20218;-74
2021/08/03 11:02:45;;;;;;;9.38;2.38;;;22.20;99.90;;;;;;4931473;29;20217;-73
2021/08/03 11:05:27;;;;;;;1.92;1.50;;;22.30;99.90;;;;;;4917424;29;20207;-73
2021/08/03 11:07:55;;;;;;;2.40;1.60;;;21.70;99.90;;;;;;4924714;29;20666;-73
2021/08/03 11:10:35;;;;;;;3.22;1.50;;;21.90;99.90;;;;;;4930413;29;20731;-73
2021/08/03 11:13:03;;;;;;;3.05;1.75;;;22.00;99.90;;;;;;4931924;29;20278;-73
2021/08/03 11:15:40;;;;;;;3.72;1.73;;;22.00;99.90;;;;;;4921259;29;20211;-73
2021/08/03 11:18:13;;;;;;;2.30;1.65;;;21.80;99.90;;;;;;4916099;29;20541;-73
2021/08/03 11:21:14;;;;;;;2.30;1.88;;;21.70;99.90;;;;;;4929935;29;20211;-73
2021/08/03 11:24:09;;;;;;;2.20;1.50;;;21.60;99.90;;;;;;4926220;29;20587;-73
2021/08/03 11:26:38;;;;;;;3.20;1.75;;;21.40;99.90;;;;;;4919003;29;20219;-73
2021/08/03 11:29:08;;;;;;;3.10;1.80;;;21.50;99.90;;;;;;4915366;29;20219;-73
2021/08/03 11:31:50;;;;;;;2.00;1.60;;;21.40;99.90;;;;;;4922366;29;20205;-73
2021/08/03 11:34:26;;;;;;;1.92;1.80;;;21.40;99.90;;;;;;4927727;29;20699;-73
2021/08/03 11:37:12;;;;;;;2.72;2.08;;;21.30;99.90;;;;;;4928081;29;20227;-73
2021/08/03 11:39:43;;;;;;;1.63;1.50;;;21.00;99.90;;;;;;4920686;29;20208;-74
2021/08/03 11:42:11;;;;;;;4.32;1.83;;;20.90;99.90;;;;;;4918051;29;20213;-73
2021/08/03 11:44:39;;;;;;;1.83;1.73;;;20.70;99.90;;;;;;4932135;29;20210;-73
2021/08/03 11:47:08;;;;;;;2.53;1.70;;;20.90;99.90;;;;;;4923006;29;20214;-73
2021/08/03 11:49:41;;;;;;;2.88;1.92;;;21.00;99.90;;;;;;4917418;28;20215;-73
2021/08/03 11:52:15;;;;;;;4.72;2.15;;;21.00;99.90;;;;;;4923765;29;20219;-73
2021/08/03 11:54:44;;;;;;;2.38;2.00;;;21.00;99.90;;;;;;4928148;29;21325;-73
2021/08/03 11:57:41;;;;;;;7.13;2.20;;;21.10;99.90;;;;;;4927400;29;20219;-73
2021/08/03 12:00:16;;;;;;;4.07;2.20;;;20.90;99.90;;;;;;4899092;29;20207;-73
2021/08/03 12:02:45;;;;;;;2.55;1.98;;;20.70;99.90;;;;;;4931616;29;20217;-73
2021/08/03 12:05:24;;;;;;;1.70;1.60;;;20.90;99.90;;;;;;4938130;29;20211;-73
2021/08/03 12:08:01;;;;;;;3.03;1.98;;;20.60;99.90;;;;;;4930943;29;20291;-73
2021/08/03 12:10:31;;;;;;;1.70;1.60;;;20.60;99.90;;;;;;4929167;29;20217;-73
2021/08/03 12:12:58;;;;;;;2.53;1.98;;;20.80;99.90;;;;;;4926344;29;20226;-77
2021/08/03 12:15:26;;;;;;;3.72;1.90;;;21.00;99.90;;;;;;4928373;29;20225;-74
2021/08/03 12:18:05;;;;;;;4.03;2.00;;;20.90;99.90;;;;;;4929096;29;20226;-76
2021/08/03 12:20:35;;;;;;;3.38;2.00;;;21.00;99.90;;;;;;4915445;29;20638;-76
2021/08/03 12:23:18;;;;;;;3.58;2.00;;;20.90;99.90;;;;;;4921945;29;20603;-77
2021/08/03 12:25:51;;;;;;;3.08;2.10;;;21.00;99.90;;;;;;4928030;29;20705;-76
2021/08/03 12:28:36;;;;;;;3.15;2.25;;;21.10;99.90;;;;;;4926225;29;20630;-76
2021/08/03 12:31:19;;;;;;;2.08;1.98;;;21.00;99.90;;;;;;4915753;29;20200;-76
2021/08/03 12:33:46;;;;;;;2.25;1.98;;;20.80;99.90;;;;;;4923831;29;20215;-72
2021/08/03 12:36:16;;;;;;;4.32;2.28;;;20.80;99.90;;;;;;4916189;29;20213;-73
2021/08/03 12:39:02;;;;;;;2.45;1.92;;;20.90;99.90;;;;;;4926307;29;20285;-74
2021/08/03 12:41:31;;;;;;;3.72;1.80;;;21.10;99.90;;;;;;4912754;29;20637;-74
2021/08/03 12:43:58;;;;;;;2.15;1.77;;;21.30;99.90;;;;;;4925188;29;20238;-73
2021/08/03 12:46:35;;;;;;;2.60;1.95;;;21.30;99.90;;;;;;4918435;29;20217;-75
2021/08/03 12:49:03;;;;;;;2.63;1.75;;;21.10;99.90;;;;;;4921740;29;20714;-76
2021/08/03 12:51:37;;;;;;;3.95;2.20;;;21.40;99.90;;;;;;4929468;29;20242;-75
2021/08/03 12:54:12;;;;;;;2.83;2.25;;;21.50;99.90;;;;;;4928475;29;20293;-75
2021/08/03 12:56:57;;;;;;;1.90;1.75;;;21.60;99.90;;;;;;4927866;29;20218;-75
2021/08/03 12:59:41;;;;;;;2.33;1.92;;;21.90;99.90;;;;;;4928765;29;20653;-75
2021/08/03 13:02:10;;;;;;;3.30;2.13;;;22.20;99.90;;;;;;4916903;29;20215;-75
2021/08/03 13:04:37;;;;;;;2.70;1.85;;;21.70;99.90;;;;;;4917857;29;20219;-76